sensor_id;sensor_type;location;lat;lon;timestamp;temperature;humidity
52181;DHT22;38158;53.338;6.514;2022-08-01T00:00:22;17.50;99.90
52181;DHT22;38158;53.338;6.514;2022-08-01T00:02:48;17.50;99.90
52181;DHT22;38158;53.338;6.514;2022-08-01T00:05:13;17.40;99.90
52181;DHT22;38158;53.338;6.514;2022-08-01T00:07:39;17.40;99.90
52181;DHT22;38158;53.338;6.514;2022-08-01T00:10:07;17.30;99.90
52181;DHT22;38158;53.338;6.514;2022-08-01T00:12:33;17.30;99.90
52181;DHT22;38158;53.338;6.514;2022-08-01T00:14:59;17.30;99.90
52181;DHT22;38158;53.338;6.514;2022-08-01T00:17:25;17.20;99.90
52181;DHT22;38158;53.338;6.514;2022-08-01T00:19:51;17.20;99.90
52181;DHT22;38158;53.338;6.514;2022-08-01T00:22:17;17.20;99.90
52181;DHT22;38158;53.338;6.514;2022-08-01T00:24:42;17.20;99.90
52181;DHT22;38158;53.338;6.514;2022-08-01T00:27:08;17.20;99.90
52181;DHT22;38158;53.338;6.514;2022-08-01T00:29:34;17.20;99.90
52181;DHT22;38158;53.338;6.514;2022-08-01T00:31:59;17.20;99.90
52181;DHT22;38158;53.338;6.514;2022-08-01T00:34:25;17.20;99.90
52181;DHT22;38158;53.338;6.514;2022-08-01T00:36:51;17.20;99.90
52181;DHT22;38158;53.338;6.514;2022-08-01T00:39:16;17.20;99.90
52181;DHT22;38158;53.338;6.514;2022-08-01T00:41:42;17.20;99.90
52181;DHT22;38158;53.338;6.514;2022-08-01T00:44:08;17.20;99.90
52181;DHT22;38158;53.338;6.514;2022-08-01T00:46:33;17.20;99.90
52181;DHT22;38158;53.338;6.514;2022-08-01T00:49:00;17.20;99.90
52181;DHT22;38158;53.338;6.514;2022-08-01T00:51:26;17.20;99.90
52181;DHT22;38158;53.338;6.514;2022-08-01T00:53:53;17.10;99.90
52181;DHT22;38158;53.338;6.514;2022-08-01T00:56:20;17.10;99.90
52181;DHT22;38158;53.338;6.514;2022-08-01T00:58:47;17.10;99.90
52181;DHT22;38158;53.338;6.514;2022-08-01T01:01:13;17.00;99.90
52181;DHT22;38158;53.338;6.514;2022-08-01T01:03:39;17.00;99.90
52181;DHT22;38158;53.338;6.514;2022-08-01T01:08:37;17.00;99.90
52181;DHT22;38158;53.338;6.514;2022-08-01T01:14:13;17.00;99.90
52181;DHT22;38158;53.338;6.514;2022-08-01T01:16:42;16.90;99.90
52181;DHT22;38158;53.338;6.514;2022-08-01T01:19:11;17.00;99.90
52181;DHT22;38158;53.338;6.514;2022-08-01T01:27:17;16.90;99.90
52181;DHT22;38158;53.338;6.514;2022-08-01T01:29:55;16.80;99.90
52181;DHT22;38158;53.338;6.514;2022-08-01T01:32:32;16.80;99.90
52181;DHT22;38158;53.338;6.514;2022-08-01T01:35:05;16.70;99.90
52181;DHT22;38158;53.338;6.514;2022-08-01T01:37:33;16.70;99.90
52181;DHT22;38158;53.338;6.514;2022-08-01T01:40:00;16.70;99.90
52181;DHT22;38158;53.338;6.514;2022-08-01T01:42:28;16.70;99.90
52181;DHT22;38158;53.338;6.514;2022-08-01T01:44:55;16.70;99.90
52181;DHT22;38158;53.338;6.514;2022-08-01T01:47:23;16.70;99.90
52181;DHT22;38158;53.338;6.514;2022-08-01T01:49:51;16.70;99.90
52181;DHT22;38158;53.338;6.514;2022-08-01T01:52:18;16.70;99.90
52181;DHT22;38158;53.338;6.514;2022-08-01T01:54:48;16.70;99.90
52181;DHT22;38158;53.338;6.514;2022-08-01T01:57:15;16.70;99.90
52181;DHT22;38158;53.338;6.514;2022-08-01T01:59:42;16.80;99.90
52181;DHT22;38158;53.338;6.514;2022-08-01T02:02:10;16.80;99.90
52181;DHT22;38158;53.338;6.514;2022-08-01T02:04:39;16.80;99.90
52181;DHT22;38158;53.338;6.514;2022-08-01T02:07:08;16.80;99.90
52181;DHT22;38158;53.338;6.514;2022-08-01T02:09:35;16.80;99.90
52181;DHT22;38158;53.338;6.514;2022-08-01T02:12:03;16.80;99.90
52181;DHT22;38158;53.338;6.514;2022-08-01T02:14:33;16.70;99.90
52181;DHT22;38158;53.338;6.514;2022-08-01T02:17:00;16.70;99.90
52181;DHT22;38158;53.338;6.514;2022-08-01T02:19:29;16.70;99.90
52181;DHT22;38158;53.338;6.514;2022-08-01T02:21:59;17.10;99.90
52181;DHT22;38158;53.338;6.514;2022-08-01T02:24:36;16.60;99.90
52181;DHT22;38158;53.338;6.514;2022-08-01T02:27:09;16.60;99.90
52181;DHT22;38158;53.338;6.514;2022-08-01T02:29:47;16.50;99.90
52181;DHT22;38158;53.338;6.514;2022-08-01T02:32:23;16.50;99.90
52181;DHT22;38158;53.338;6.514;2022-08-01T02:34:51;16.40;99.90
52181;DHT22;38158;53.338;6.514;2022-08-01T02:37:19;16.40;99.90
52181;DHT22;38158;53.338;6.514;2022-08-01T02:39:48;16.40;99.90
52181;DHT22;38158;53.338;6.514;2022-08-01T02:42:18;16.40;99.90
52181;DHT22;38158;53.338;6.514;2022-08-01T02:44:46;16.30;99.90
52181;DHT22;38158;53.338;6.514;2022-08-01T02:47:13;16.30;99.90
52181;DHT22;38158;53.338;6.514;2022-08-01T02:49:42;16.30;99.90
52181;DHT22;38158;53.338;6.514;2022-08-01T02:52:13;16.30;99.90
52181;DHT22;38158;53.338;6.514;2022-08-01T02:54:40;16.30;99.90
52181;DHT22;38158;53.338;6.514;2022-08-01T02:57:08;16.30;99.90
52181;DHT22;38158;53.338;6.514;2022-08-01T02:59:37;16.30;99.90
52181;DHT22;38158;53.338;6.514;2022-08-01T03:02:04;16.30;99.90
52181;DHT22;38158;53.338;6.514;2022-08-01T03:04:32;16.30;99.90
52181;DHT22;38158;53.338;6.514;2022-08-01T03:07:00;16.30;99.90
52181;DHT22;38158;53.338;6.514;2022-08-01T03:09:30;16.30;99.90
52181;DHT22;38158;53.338;6.514;2022-08-01T03:12:00;16.20;99.90
52181;DHT22;38158;53.338;6.514;2022-08-01T03:14:29;16.20;99.90
52181;DHT22;38158;53.338;6.514;2022-08-01T03:16:57;16.20;99.90
52181;DHT22;38158;53.338;6.514;2022-08-01T03:19:26;16.20;99.90
52181;DHT22;38158;53.338;6.514;2022-08-01T03:21:54;16.20;99.90
52181;DHT22;38158;53.338;6.514;2022-08-01T03:24:21;16.20;99.90
52181;DHT22;38158;53.338;6.514;2022-08-01T03:26:50;16.20;99.90
52181;DHT22;38158;53.338;6.514;2022-08-01T03:29:22;16.20;99.90
52181;DHT22;38158;53.338;6.514;2022-08-01T03:31:48;16.10;99.90
52181;DHT22;38158;53.338;6.514;2022-08-01T03:34:15;16.10;99.90
52181;DHT22;38158;53.338;6.514;2022-08-01T03:36:55;16.10;99.90
52181;DHT22;38158;53.338;6.514;2022-08-01T03:39:28;16.10;99.90
52181;DHT22;38158;53.338;6.514;2022-08-01T03:41:59;16.10;99.90
52181;DHT22;38158;53.338;6.514;2022-08-01T03:44:27;16.10;99.90
52181;DHT22;38158;53.338;6.514;2022-08-01T03:47:04;16.10;99.90
52181;DHT22;38158;53.338;6.514;2022-08-01T03:49:33;16.10;99.90
52181;DHT22;38158;53.338;6.514;2022-08-01T03:52:04;16.10;99.90
52181;DHT22;38158;53.338;6.514;2022-08-01T03:54:34;16.10;99.90
52181;DHT22;38158;53.338;6.514;2022-08-01T03:57:01;16.10;99.90
52181;DHT22;38158;53.338;6.514;2022-08-01T03:59:29;16.10;99.90
52181;DHT22;38158;53.338;6.514;2022-08-01T04:01:55;16.10;99.90
52181;DHT22;38158;53.338;6.514;2022-08-01T04:04:21;16.00;99.90
52181;DHT22;38158;53.338;6.514;2022-08-01T04:06:48;16.00;99.90
52181;DHT22;38158;53.338;6.514;2022-08-01T04:09:16;16.00;99.90
52181;DHT22;38158;53.338;6.514;2022-08-01T04:11:43;16.10;99.90
52181;DHT22;38158;53.338;6.514;2022-08-01T04:14:08;16.10;99.90
52181;DHT22;38158;53.338;6.514;2022-08-01T04:16:34;16.10;99.90
52181;DHT22;38158;53.338;6.514;2022-08-01T04:19:00;16.00;99.90
52181;DHT22;38158;53.338;6.514;2022-08-01T04:21:27;16.00;99.90
52181;DHT22;38158;53.338;6.514;2022-08-01T04:23:59;16.10;99.90
52181;DHT22;38158;53.338;6.514;2022-08-01T04:26:27;16.10;99.90
52181;DHT22;38158;53.338;6.514;2022-08-01T04:28:55;16.10;99.90
52181;DHT22;38158;53.338;6.514;2022-08-01T04:31:21;16.10;99.90
52181;DHT22;38158;53.338;6.514;2022-08-01T04:33:49;16.00;99.90
52181;DHT22;38158;53.338;6.514;2022-08-01T04:36:18;16.00;99.90
52181;DHT22;38158;53.338;6.514;2022-08-01T04:38:46;16.00;99.90
52181;DHT22;38158;53.338;6.514;2022-08-01T04:41:14;15.90;99.90
52181;DHT22;38158;53.338;6.514;2022-08-01T04:43:41;15.90;99.90
52181;DHT22;38158;53.338;6.514;2022-08-01T04:46:08;15.90;99.90
52181;DHT22;38158;53.338;6.514;2022-08-01T04:48:38;15.90;99.90
52181;DHT22;38158;53.338;6.514;2022-08-01T04:51:04;15.80;99.90
52181;DHT22;38158;53.338;6.514;2022-08-01T04:53:30;15.90;99.90
52181;DHT22;38158;53.338;6.514;2022-08-01T04:55:58;15.90;99.90
52181;DHT22;38158;53.338;6.514;2022-08-01T04:58:23;15.90;99.90
52181;DHT22;38158;53.338;6.514;2022-08-01T05:00:49;15.90;99.90
52181;DHT22;38158;53.338;6.514;2022-08-01T05:03:15;15.90;99.90
52181;DHT22;38158;53.338;6.514;2022-08-01T05:05:40;15.90;99.90
52181;DHT22;38158;53.338;6.514;2022-08-01T05:08:06;15.90;99.90
52181;DHT22;38158;53.338;6.514;2022-08-01T05:10:32;15.90;99.90
52181;DHT22;38158;53.338;6.514;2022-08-01T05:12:57;15.90;99.90
52181;DHT22;38158;53.338;6.514;2022-08-01T05:15:23;15.90;99.90
52181;DHT22;38158;53.338;6.514;2022-08-01T05:17:49;15.90;99.90
52181;DHT22;38158;53.338;6.514;2022-08-01T05:20:15;15.90;99.90
52181;DHT22;38158;53.338;6.514;2022-08-01T05:22:40;15.90;99.90
52181;DHT22;38158;53.338;6.514;2022-08-01T05:25:06;15.90;99.90
52181;DHT22;38158;53.338;6.514;2022-08-01T05:27:32;15.90;99.90
52181;DHT22;38158;53.338;6.514;2022-08-01T05:29:58;15.90;99.90
52181;DHT22;38158;53.338;6.514;2022-08-01T05:32:23;15.90;99.90
52181;DHT22;38158;53.338;6.514;2022-08-01T05:34:49;15.90;99.90
52181;DHT22;38158;53.338;6.514;2022-08-01T05:37:15;15.90;99.90
52181;DHT22;38158;53.338;6.514;2022-08-01T05:39:41;15.90;99.90
52181;DHT22;38158;53.338;6.514;2022-08-01T05:42:06;15.80;99.90
52181;DHT22;38158;53.338;6.514;2022-08-01T05:44:32;15.80;99.90
52181;DHT22;38158;53.338;6.514;2022-08-01T05:46:58;15.80;99.90
52181;DHT22;38158;53.338;6.514;2022-08-01T05:49:23;15.90;99.90
52181;DHT22;38158;53.338;6.514;2022-08-01T05:51:49;15.80;99.90
52181;DHT22;38158;53.338;6.514;2022-08-01T05:54:15;15.80;99.90
52181;DHT22;38158;53.338;6.514;2022-08-01T05:56:41;15.80;99.90
52181;DHT22;38158;53.338;6.514;2022-08-01T05:59:06;15.80;99.90
52181;DHT22;38158;53.338;6.514;2022-08-01T06:01:32;15.90;99.90
52181;DHT22;38158;53.338;6.514;2022-08-01T06:03:58;15.80;99.90
52181;DHT22;38158;53.338;6.514;2022-08-01T06:06:24;15.90;99.90
52181;DHT22;38158;53.338;6.514;2022-08-01T06:08:49;15.90;99.90
52181;DHT22;38158;53.338;6.514;2022-08-01T06:11:15;15.90;99.90
52181;DHT22;38158;53.338;6.514;2022-08-01T06:13:41;15.90;99.90
52181;DHT22;38158;53.338;6.514;2022-08-01T06:16:07;15.90;99.90
52181;DHT22;38158;53.338;6.514;2022-08-01T06:18:33;15.90;99.90
52181;DHT22;38158;53.338;6.514;2022-08-01T06:20:58;15.90;99.90
52181;DHT22;38158;53.338;6.514;2022-08-01T06:23:24;15.90;99.90
52181;DHT22;38158;53.338;6.514;2022-08-01T06:25:53;15.90;99.90
52181;DHT22;38158;53.338;6.514;2022-08-01T06:28:20;15.90;99.90
52181;DHT22;38158;53.338;6.514;2022-08-01T06:30:46;16.00;99.90
52181;DHT22;38158;53.338;6.514;2022-08-01T06:33:11;16.00;99.90
52181;DHT22;38158;53.338;6.514;2022-08-01T06:35:37;16.00;99.90
52181;DHT22;38158;53.338;6.514;2022-08-01T06:38:03;16.10;99.90
52181;DHT22;38158;53.338;6.514;2022-08-01T06:40:29;16.10;99.90
52181;DHT22;38158;53.338;6.514;2022-08-01T06:42:54;16.10;99.90
52181;DHT22;38158;53.338;6.514;2022-08-01T06:45:20;16.10;99.90
52181;DHT22;38158;53.338;6.514;2022-08-01T06:47:47;16.10;99.90
52181;DHT22;38158;53.338;6.514;2022-08-01T06:50:13;16.10;99.90
52181;DHT22;38158;53.338;6.514;2022-08-01T06:52:40;16.10;99.90
52181;DHT22;38158;53.338;6.514;2022-08-01T06:55:07;16.20;99.90
52181;DHT22;38158;53.338;6.514;2022-08-01T06:57:33;16.30;99.90
52181;DHT22;38158;53.338;6.514;2022-08-01T07:00:05;16.30;99.90
52181;DHT22;38158;53.338;6.514;2022-08-01T07:02:33;16.40;99.90
52181;DHT22;38158;53.338;6.514;2022-08-01T07:04:58;16.40;99.90
52181;DHT22;38158;53.338;6.514;2022-08-01T07:07:26;16.50;99.90
52181;DHT22;38158;53.338;6.514;2022-08-01T07:09:52;16.60;99.90
52181;DHT22;38158;53.338;6.514;2022-08-01T07:12:18;16.70;99.90
52181;DHT22;38158;53.338;6.514;2022-08-01T07:14:44;16.80;99.90
52181;DHT22;38158;53.338;6.514;2022-08-01T07:17:09;16.90;99.90
52181;DHT22;38158;53.338;6.514;2022-08-01T07:19:35;17.00;99.90
52181;DHT22;38158;53.338;6.514;2022-08-01T07:22:01;17.10;99.90
52181;DHT22;38158;53.338;6.514;2022-08-01T07:24:26;17.10;99.90
52181;DHT22;38158;53.338;6.514;2022-08-01T07:26:54;17.10;99.90
52181;DHT22;38158;53.338;6.514;2022-08-01T07:29:24;17.00;99.90
52181;DHT22;38158;53.338;6.514;2022-08-01T07:31:51;16.90;99.90
52181;DHT22;38158;53.338;6.514;2022-08-01T07:34:18;16.90;99.90
52181;DHT22;38158;53.338;6.514;2022-08-01T07:36:44;16.90;99.90
52181;DHT22;38158;53.338;6.514;2022-08-01T07:39:09;17.10;99.90
52181;DHT22;38158;53.338;6.514;2022-08-01T07:41:35;17.20;99.90
52181;DHT22;38158;53.338;6.514;2022-08-01T07:44:01;17.30;99.90
52181;DHT22;38158;53.338;6.514;2022-08-01T07:46:26;17.50;99.90
52181;DHT22;38158;53.338;6.514;2022-08-01T07:48:52;17.50;99.90
52181;DHT22;38158;53.338;6.514;2022-08-01T07:51:18;17.60;99.90
52181;DHT22;38158;53.338;6.514;2022-08-01T07:53:43;17.60;99.90
52181;DHT22;38158;53.338;6.514;2022-08-01T07:56:09;17.70;99.90
52181;DHT22;38158;53.338;6.514;2022-08-01T07:58:35;17.80;99.90
52181;DHT22;38158;53.338;6.514;2022-08-01T08:01:01;17.90;99.90
52181;DHT22;38158;53.338;6.514;2022-08-01T08:03:27;17.90;99.90
52181;DHT22;38158;53.338;6.514;2022-08-01T08:05:53;17.90;99.90
52181;DHT22;38158;53.338;6.514;2022-08-01T08:08:18;17.80;99.90
52181;DHT22;38158;53.338;6.514;2022-08-01T08:10:44;17.80;99.90
52181;DHT22;38158;53.338;6.514;2022-08-01T08:13:10;17.90;99.90
52181;DHT22;38158;53.338;6.514;2022-08-01T08:15:35;17.80;99.90
52181;DHT22;38158;53.338;6.514;2022-08-01T08:18:03;17.80;99.90
52181;DHT22;38158;53.338;6.514;2022-08-01T08:20:29;17.90;99.90
52181;DHT22;38158;53.338;6.514;2022-08-01T08:22:56;18.00;99.90
52181;DHT22;38158;53.338;6.514;2022-08-01T08:25:23;18.10;99.90
52181;DHT22;38158;53.338;6.514;2022-08-01T08:27:49;17.80;99.90
52181;DHT22;38158;53.338;6.514;2022-08-01T08:30:15;17.50;99.90
52181;DHT22;38158;53.338;6.514;2022-08-01T08:32:41;17.40;99.90
52181;DHT22;38158;53.338;6.514;2022-08-01T08:35:07;17.40;99.90
52181;DHT22;38158;53.338;6.514;2022-08-01T08:37:34;17.40;99.90
52181;DHT22;38158;53.338;6.514;2022-08-01T08:40:00;17.50;99.90
52181;DHT22;38158;53.338;6.514;2022-08-01T08:42:26;17.60;99.90
52181;DHT22;38158;53.338;6.514;2022-08-01T08:44:52;17.60;99.90
52181;DHT22;38158;53.338;6.514;2022-08-01T08:47:21;17.60;99.90
52181;DHT22;38158;53.338;6.514;2022-08-01T08:49:52;17.70;99.90
52181;DHT22;38158;53.338;6.514;2022-08-01T08:52:22;17.80;99.90
52181;DHT22;38158;53.338;6.514;2022-08-01T08:54:49;17.80;99.90
52181;DHT22;38158;53.338;6.514;2022-08-01T08:57:15;17.80;99.90
52181;DHT22;38158;53.338;6.514;2022-08-01T08:59:43;17.90;99.90
52181;DHT22;38158;53.338;6.514;2022-08-01T09:02:11;18.00;99.90
52181;DHT22;38158;53.338;6.514;2022-08-01T09:04:37;18.10;99.90
52181;DHT22;38158;53.338;6.514;2022-08-01T09:07:06;18.00;99.90
52181;DHT22;38158;53.338;6.514;2022-08-01T09:09:32;17.80;99.90
52181;DHT22;38158;53.338;6.514;2022-08-01T09:11:58;17.50;99.90
52181;DHT22;38158;53.338;6.514;2022-08-01T09:14:25;17.40;99.90
52181;DHT22;38158;53.338;6.514;2022-08-01T09:17:07;17.70;99.90
52181;DHT22;38158;53.338;6.514;2022-08-01T09:19:45;17.90;99.90
52181;DHT22;38158;53.338;6.514;2022-08-01T09:22:18;18.20;99.90
52181;DHT22;38158;53.338;6.514;2022-08-01T09:27:31;18.30;99.80
52181;DHT22;38158;53.338;6.514;2022-08-01T09:30:15;18.20;99.90
52181;DHT22;38158;53.338;6.514;2022-08-01T09:33:01;18.10;99.90
52181;DHT22;38158;53.338;6.514;2022-08-01T09:35:29;18.20;99.90
52181;DHT22;38158;53.338;6.514;2022-08-01T09:38:16;18.20;99.90
52181;DHT22;38158;53.338;6.514;2022-08-01T09:43:12;18.20;99.90
52181;DHT22;38158;53.338;6.514;2022-08-01T09:45:38;18.40;99.90
52181;DHT22;38158;53.338;6.514;2022-08-01T09:48:08;18.60;99.90
52181;DHT22;38158;53.338;6.514;2022-08-01T09:50:46;18.60;98.80
52181;DHT22;38158;53.338;6.514;2022-08-01T09:53:12;18.60;99.90
52181;DHT22;38158;53.338;6.514;2022-08-01T09:55:39;18.50;98.80
52181;DHT22;38158;53.338;6.514;2022-08-01T09:58:06;18.30;99.40
52181;DHT22;38158;53.338;6.514;2022-08-01T10:00:34;18.30;99.90
52181;DHT22;38158;53.338;6.514;2022-08-01T10:03:21;18.50;99.90
52181;DHT22;38158;53.338;6.514;2022-08-01T10:05:48;18.60;96.50
52181;DHT22;38158;53.338;6.514;2022-08-01T10:08:14;18.60;98.80
52181;DHT22;38158;53.338;6.514;2022-08-01T10:10:40;18.70;98.20
52181;DHT22;38158;53.338;6.514;2022-08-01T10:13:07;18.70;97.50
52181;DHT22;38158;53.338;6.514;2022-08-01T10:15:34;18.80;97.80
52181;DHT22;38158;53.338;6.514;2022-08-01T10:18:02;18.70;97.00
52181;DHT22;38158;53.338;6.514;2022-08-01T10:20:31;18.60;96.80
52181;DHT22;38158;53.338;6.514;2022-08-01T10:23:03;18.60;97.10
52181;DHT22;38158;53.338;6.514;2022-08-01T10:25:34;18.70;95.00
52181;DHT22;38158;53.338;6.514;2022-08-01T10:28:02;18.80;95.90
52181;DHT22;38158;53.338;6.514;2022-08-01T10:30:32;19.00;95.50
52181;DHT22;38158;53.338;6.514;2022-08-01T10:32:58;19.10;95.50
52181;DHT22;38158;53.338;6.514;2022-08-01T10:35:24;19.30;94.50
52181;DHT22;38158;53.338;6.514;2022-08-01T10:37:50;19.40;94.40
52181;DHT22;38158;53.338;6.514;2022-08-01T10:40:21;19.40;94.30
52181;DHT22;38158;53.338;6.514;2022-08-01T10:42:47;19.50;94.30
52181;DHT22;38158;53.338;6.514;2022-08-01T10:45:15;19.50;93.70
52181;DHT22;38158;53.338;6.514;2022-08-01T10:50:47;19.40;91.20
52181;DHT22;38158;53.338;6.514;2022-08-01T10:53:19;19.30;92.00
52181;DHT22;38158;53.338;6.514;2022-08-01T10:55:50;19.10;90.80
52181;DHT22;38158;53.338;6.514;2022-08-01T10:58:22;19.00;91.30
52181;DHT22;38158;53.338;6.514;2022-08-01T11:00:48;18.90;91.10
52181;DHT22;38158;53.338;6.514;2022-08-01T11:03:14;19.00;93.00
52181;DHT22;38158;53.338;6.514;2022-08-01T11:05:40;19.00;92.60
52181;DHT22;38158;53.338;6.514;2022-08-01T11:08:20;19.10;92.70
52181;DHT22;38158;53.338;6.514;2022-08-01T11:10:47;19.20;91.70
52181;DHT22;38158;53.338;6.514;2022-08-01T11:13:13;19.10;91.70
52181;DHT22;38158;53.338;6.514;2022-08-01T11:15:39;18.90;90.50
52181;DHT22;38158;53.338;6.514;2022-08-01T11:18:35;18.90;90.90
52181;DHT22;38158;53.338;6.514;2022-08-01T11:21:02;19.00;90.00
52181;DHT22;38158;53.338;6.514;2022-08-01T11:23:28;19.00;90.20
52181;DHT22;38158;53.338;6.514;2022-08-01T11:28:21;19.00;90.90
52181;DHT22;38158;53.338;6.514;2022-08-01T11:31:23;19.00;90.40
52181;DHT22;38158;53.338;6.514;2022-08-01T11:38:46;19.30;90.60
52181;DHT22;38158;53.338;6.514;2022-08-01T11:41:33;19.20;90.30
52181;DHT22;38158;53.338;6.514;2022-08-01T11:47:01;19.20;90.40
52181;DHT22;38158;53.338;6.514;2022-08-01T11:57:19;19.30;89.80
52181;DHT22;38158;53.338;6.514;2022-08-01T11:59:51;19.30;90.60
52181;DHT22;38158;53.338;6.514;2022-08-01T12:02:17;19.30;88.60
52181;DHT22;38158;53.338;6.514;2022-08-01T12:04:56;19.30;90.60
52181;DHT22;38158;53.338;6.514;2022-08-01T12:07:22;19.30;89.60
52181;DHT22;38158;53.338;6.514;2022-08-01T12:10:00;19.30;90.80
52181;DHT22;38158;53.338;6.514;2022-08-01T12:12:26;19.40;89.80
52181;DHT22;38158;53.338;6.514;2022-08-01T12:14:57;19.30;86.80
52181;DHT22;38158;53.338;6.514;2022-08-01T12:17:32;19.20;88.60
52181;DHT22;38158;53.338;6.514;2022-08-01T12:19:59;19.20;89.50
52181;DHT22;38158;53.338;6.514;2022-08-01T12:22:25;19.20;90.20
52181;DHT22;38158;53.338;6.514;2022-08-01T12:24:52;19.20;90.00
52181;DHT22;38158;53.338;6.514;2022-08-01T12:27:25;19.20;89.40
52181;DHT22;38158;53.338;6.514;2022-08-01T12:29:51;19.30;90.20
52181;DHT22;38158;53.338;6.514;2022-08-01T12:32:26;19.50;90.90
52181;DHT22;38158;53.338;6.514;2022-08-01T12:34:54;19.60;88.40
52181;DHT22;38158;53.338;6.514;2022-08-01T12:37:21;19.50;90.60
52181;DHT22;38158;53.338;6.514;2022-08-01T12:39:47;19.50;90.20
52181;DHT22;38158;53.338;6.514;2022-08-01T12:42:14;19.40;90.10
52181;DHT22;38158;53.338;6.514;2022-08-01T12:44:43;19.40;89.70
52181;DHT22;38158;53.338;6.514;2022-08-01T12:47:10;19.60;89.00
52181;DHT22;38158;53.338;6.514;2022-08-01T12:49:37;19.80;90.10
52181;DHT22;38158;53.338;6.514;2022-08-01T12:52:03;19.80;88.60
52181;DHT22;38158;53.338;6.514;2022-08-01T12:54:29;19.80;87.20
52181;DHT22;38158;53.338;6.514;2022-08-01T12:56:55;19.70;87.80
52181;DHT22;38158;53.338;6.514;2022-08-01T12:59:27;19.70;86.90
52181;DHT22;38158;53.338;6.514;2022-08-01T13:02:07;19.70;83.50
52181;DHT22;38158;53.338;6.514;2022-08-01T13:04:49;19.70;82.80
52181;DHT22;38158;53.338;6.514;2022-08-01T13:07:15;19.50;85.60
52181;DHT22;38158;53.338;6.514;2022-08-01T13:09:51;19.50;88.80
52181;DHT22;38158;53.338;6.514;2022-08-01T13:12:16;19.60;91.50
52181;DHT22;38158;53.338;6.514;2022-08-01T13:14:42;19.60;90.50
52181;DHT22;38158;53.338;6.514;2022-08-01T13:17:08;19.70;90.50
52181;DHT22;38158;53.338;6.514;2022-08-01T13:19:44;19.80;90.90
52181;DHT22;38158;53.338;6.514;2022-08-01T13:22:10;19.60;88.80
52181;DHT22;38158;53.338;6.514;2022-08-01T13:24:36;19.50;90.40
52181;DHT22;38158;53.338;6.514;2022-08-01T13:27:03;19.50;91.10
52181;DHT22;38158;53.338;6.514;2022-08-01T13:29:39;19.60;90.30
52181;DHT22;38158;53.338;6.514;2022-08-01T13:32:15;19.60;89.60
52181;DHT22;38158;53.338;6.514;2022-08-01T13:34:40;19.70;88.10
52181;DHT22;38158;53.338;6.514;2022-08-01T13:37:06;19.70;88.60
52181;DHT22;38158;53.338;6.514;2022-08-01T13:39:32;19.80;87.50
52181;DHT22;38158;53.338;6.514;2022-08-01T13:42:12;19.80;87.70
52181;DHT22;38158;53.338;6.514;2022-08-01T13:44:38;19.80;88.10
52181;DHT22;38158;53.338;6.514;2022-08-01T13:47:04;19.90;90.40
52181;DHT22;38158;53.338;6.514;2022-08-01T13:49:30;20.10;90.50
52181;DHT22;38158;53.338;6.514;2022-08-01T13:51:57;20.30;90.40
52181;DHT22;38158;53.338;6.514;2022-08-01T13:54:23;20.20;89.40
52181;DHT22;38158;53.338;6.514;2022-08-01T13:56:50;20.20;90.20
52181;DHT22;38158;53.338;6.514;2022-08-01T13:59:15;20.20;90.30
52181;DHT22;38158;53.338;6.514;2022-08-01T14:01:41;20.30;89.20
52181;DHT22;38158;53.338;6.514;2022-08-01T14:04:07;20.30;88.00
52181;DHT22;38158;53.338;6.514;2022-08-01T14:06:34;20.20;88.10
52181;DHT22;38158;53.338;6.514;2022-08-01T14:09:00;20.20;88.80
52181;DHT22;38158;53.338;6.514;2022-08-01T14:11:26;20.00;86.50
52181;DHT22;38158;53.338;6.514;2022-08-01T14:13:52;19.80;90.10
52181;DHT22;38158;53.338;6.514;2022-08-01T14:16:20;19.80;89.10
52181;DHT22;38158;53.338;6.514;2022-08-01T14:18:46;19.70;87.30
52181;DHT22;38158;53.338;6.514;2022-08-01T14:21:12;19.60;89.10
52181;DHT22;38158;53.338;6.514;2022-08-01T14:23:38;19.60;88.70
52181;DHT22;38158;53.338;6.514;2022-08-01T14:26:04;19.50;89.30
52181;DHT22;38158;53.338;6.514;2022-08-01T14:28:30;19.40;88.90
52181;DHT22;38158;53.338;6.514;2022-08-01T14:30:57;19.40;89.30
52181;DHT22;38158;53.338;6.514;2022-08-01T14:33:23;19.40;90.30
52181;DHT22;38158;53.338;6.514;2022-08-01T14:35:48;19.50;90.20
52181;DHT22;38158;53.338;6.514;2022-08-01T14:38:14;19.50;88.60
52181;DHT22;38158;53.338;6.514;2022-08-01T14:40:40;19.50;88.50
52181;DHT22;38158;53.338;6.514;2022-08-01T14:43:08;19.60;87.90
52181;DHT22;38158;53.338;6.514;2022-08-01T14:45:34;19.70;88.20
52181;DHT22;38158;53.338;6.514;2022-08-01T14:48:00;19.70;86.80
52181;DHT22;38158;53.338;6.514;2022-08-01T14:50:26;19.60;87.20
52181;DHT22;38158;53.338;6.514;2022-08-01T14:52:53;19.50;86.30
52181;DHT22;38158;53.338;6.514;2022-08-01T14:55:19;19.40;84.80
52181;DHT22;38158;53.338;6.514;2022-08-01T14:57:48;19.50;87.10
52181;DHT22;38158;53.338;6.514;2022-08-01T15:00:15;19.50;86.00
52181;DHT22;38158;53.338;6.514;2022-08-01T15:02:41;19.40;85.70
52181;DHT22;38158;53.338;6.514;2022-08-01T15:05:07;19.30;85.80
52181;DHT22;38158;53.338;6.514;2022-08-01T15:07:34;19.30;87.80
52181;DHT22;38158;53.338;6.514;2022-08-01T15:10:00;19.40;87.50
52181;DHT22;38158;53.338;6.514;2022-08-01T15:12:25;19.40;87.70
52181;DHT22;38158;53.338;6.514;2022-08-01T15:14:51;19.40;87.40
52181;DHT22;38158;53.338;6.514;2022-08-01T15:19:42;19.20;84.50
52181;DHT22;38158;53.338;6.514;2022-08-01T15:22:09;19.30;84.50
52181;DHT22;38158;53.338;6.514;2022-08-01T15:24:35;19.30;85.50
52181;DHT22;38158;53.338;6.514;2022-08-01T15:27:00;19.30;84.90
52181;DHT22;38158;53.338;6.514;2022-08-01T15:29:26;19.30;85.50
52181;DHT22;38158;53.338;6.514;2022-08-01T15:31:51;19.20;85.90
52181;DHT22;38158;53.338;6.514;2022-08-01T15:34:17;19.10;86.50
52181;DHT22;38158;53.338;6.514;2022-08-01T15:36:43;19.00;86.80
52181;DHT22;38158;53.338;6.514;2022-08-01T15:39:09;19.00;85.90
52181;DHT22;38158;53.338;6.514;2022-08-01T15:41:35;18.90;86.40
52181;DHT22;38158;53.338;6.514;2022-08-01T15:44:01;18.90;87.80
52181;DHT22;38158;53.338;6.514;2022-08-01T15:46:27;18.90;86.80
52181;DHT22;38158;53.338;6.514;2022-08-01T15:48:52;18.90;87.40
52181;DHT22;38158;53.338;6.514;2022-08-01T15:51:18;18.90;87.40
52181;DHT22;38158;53.338;6.514;2022-08-01T15:53:44;18.90;87.00
52181;DHT22;38158;53.338;6.514;2022-08-01T15:56:14;18.90;87.20
52181;DHT22;38158;53.338;6.514;2022-08-01T15:58:40;18.80;86.70
52181;DHT22;38158;53.338;6.514;2022-08-01T16:01:05;18.80;86.20
52181;DHT22;38158;53.338;6.514;2022-08-01T16:03:31;18.70;85.90
52181;DHT22;38158;53.338;6.514;2022-08-01T16:05:57;18.70;86.80
52181;DHT22;38158;53.338;6.514;2022-08-01T16:08:22;18.70;87.10
52181;DHT22;38158;53.338;6.514;2022-08-01T16:10:48;18.60;87.20
52181;DHT22;38158;53.338;6.514;2022-08-01T16:13:14;18.60;87.70